sensor_id;sensor_type;location;lat;lon;timestamp;pressure;altitude;pressure_sealevel;temperature;humidity
61710;BME280;47633;51.494;5.386;2023-09-30T00:00:53;102441.06;;;21.22;54.95
61710;BME280;47633;51.494;5.386;2023-09-30T00:03:18;102434.91;;;21.21;55.11
61710;BME280;47633;51.494;5.386;2023-09-30T00:05:43;102436.72;;;21.20;54.57
61710;BME280;47633;51.494;5.386;2023-09-30T00:08:09;102442.88;;;21.21;54.60
61710;BME280;47633;51.494;5.386;2023-09-30T00:10:34;102435.75;;;21.22;54.89
61710;BME280;47633;51.494;5.386;2023-09-30T00:12:59;102440.22;;;21.21;54.79
61710;BME280;47633;51.494;5.386;2023-09-30T00:15:25;102441.16;;;21.20;54.96
61710;BME280;47633;51.494;5.386;2023-09-30T00:17:50;102442.97;;;21.19;54.99
61710;BME280;47633;51.494;5.386;2023-09-30T00:20:15;102443.81;;;21.20;54.84
61710;BME280;47633;51.494;5.386;2023-09-30T00:22:41;102449.13;;;21.20;54.66
61710;BME280;47633;51.494;5.386;2023-09-30T00:25:07;102451.03;;;21.18;54.75
61710;BME280;47633;51.494;5.386;2023-09-30T00:27:32;102441.25;;;21.18;54.77
61710;BME280;47633;51.494;5.386;2023-09-30T00:29:58;102435.22;;;21.16;54.52
61710;BME280;47633;51.494;5.386;2023-09-30T00:32:23;102427.16;;;21.18;54.72
61710;BME280;47633;51.494;5.386;2023-09-30T00:34:48;102428.88;;;21.19;54.97
61710;BME280;47633;51.494;5.386;2023-09-30T00:37:14;102443.91;;;21.18;54.62
61710;BME280;47633;51.494;5.386;2023-09-30T00:39:39;102467.78;;;21.18;54.58
61710;BME280;47633;51.494;5.386;2023-09-30T00:42:04;102466.94;;;21.18;54.77
61710;BME280;47633;51.494;5.386;2023-09-30T00:44:30;102459.09;;;21.16;54.58
61710;BME280;47633;51.494;5.386;2023-09-30T00:46:56;102459.94;;;21.17;54.64
61710;BME280;47633;51.494;5.386;2023-09-30T00:49:25;102451.97;;;21.17;54.71
61710;BME280;47633;51.494;5.386;2023-09-30T00:51:53;102443.19;;;21.16;54.36
61710;BME280;47633;51.494;5.386;2023-09-30T00:54:21;102437.03;;;21.16;54.74
61710;BME280;47633;51.494;5.386;2023-09-30T00:56:52;102445.94;;;21.15;54.73
61710;BME280;47633;51.494;5.386;2023-09-30T00:59:21;102459.19;;;21.15;54.48
61710;BME280;47633;51.494;5.386;2023-09-30T01:01:47;102463.66;;;21.14;54.56
61710;BME280;47633;51.494;5.386;2023-09-30T01:04:12;102466.31;;;21.14;54.41
61710;BME280;47633;51.494;5.386;2023-09-30T01:06:38;102461.00;;;21.14;54.71
61710;BME280;47633;51.494;5.386;2023-09-30T01:09:04;102460.13;;;21.14;54.62
61710;BME280;47633;51.494;5.386;2023-09-30T01:11:30;102460.13;;;21.14;54.42
61710;BME280;47633;51.494;5.386;2023-09-30T01:13:55;102468.97;;;21.14;54.62
61710;BME280;47633;51.494;5.386;2023-09-30T01:16:21;102468.09;;;21.14;54.25
61710;BME280;47633;51.494;5.386;2023-09-30T01:18:46;102475.19;;;21.13;54.26
61710;BME280;47633;51.494;5.386;2023-09-30T01:21:12;102477.97;;;21.12;54.57
61710;BME280;47633;51.494;5.386;2023-09-30T01:23:38;102491.13;;;21.13;54.61
61710;BME280;47633;51.494;5.386;2023-09-30T01:26:11;102490.28;;;21.13;54.54
61710;BME280;47633;51.494;5.386;2023-09-30T01:28:37;102508.84;;;21.13;54.25
61710;BME280;47633;51.494;5.386;2023-09-30T01:31:03;102503.63;;;21.11;54.13
61710;BME280;47633;51.494;5.386;2023-09-30T01:33:29;102504.47;;;21.12;54.09
61710;BME280;47633;51.494;5.386;2023-09-30T01:35:55;102498.44;;;21.10;54.15
61710;BME280;47633;51.494;5.386;2023-09-30T01:38:20;102502.66;;;21.12;54.47
61710;BME280;47633;51.494;5.386;2023-09-30T01:40:46;102498.31;;;21.11;54.10
61710;BME280;47633;51.494;5.386;2023-09-30T01:43:13;102493.13;;;21.10;53.77
61710;BME280;47633;51.494;5.386;2023-09-30T01:45:41;102482.53;;;21.10;53.92
61710;BME280;47633;51.494;5.386;2023-09-30T01:48:07;102479.88;;;21.10;53.98
61710;BME280;47633;51.494;5.386;2023-09-30T01:50:39;102472.88;;;21.09;53.88
61710;BME280;47633;51.494;5.386;2023-09-30T01:53:05;102479.97;;;21.08;53.95
61710;BME280;47633;51.494;5.386;2023-09-30T01:55:35;102479.97;;;21.08;54.11
61710;BME280;47633;51.494;5.386;2023-09-30T01:58:01;102484.31;;;21.09;53.58
61710;BME280;47633;51.494;5.386;2023-09-30T02:00:26;102489.72;;;21.08;54.04
61710;BME280;47633;51.494;5.386;2023-09-30T02:02:55;102492.50;;;21.06;53.73
61710;BME280;47633;51.494;5.386;2023-09-30T02:05:21;102484.41;;;21.08;53.88
61710;BME280;47633;51.494;5.386;2023-09-30T02:07:47;102478.28;;;21.07;53.76
61710;BME280;47633;51.494;5.386;2023-09-30T02:10:13;102488.88;;;21.07;53.78
61710;BME280;47633;51.494;5.386;2023-09-30T02:12:38;102487.19;;;21.06;53.46
61710;BME280;47633;51.494;5.386;2023-09-30T02:15:04;102490.69;;;21.07;53.72
61710;BME280;47633;51.494;5.386;2023-09-30T02:17:31;102488.97;;;21.06;53.73
61710;BME280;47633;51.494;5.386;2023-09-30T02:19:56;102492.59;;;21.05;53.74
61710;BME280;47633;51.494;5.386;2023-09-30T02:22:21;102488.13;;;21.05;53.64
61710;BME280;47633;51.494;5.386;2023-09-30T02:24:48;102497.03;;;21.04;53.61
61710;BME280;47633;51.494;5.386;2023-09-30T02:27:14;102492.59;;;21.05;53.27
61710;BME280;47633;51.494;5.386;2023-09-30T02:29:39;102487.31;;;21.05;53.71
61710;BME280;47633;51.494;5.386;2023-09-30T02:32:04;102478.47;;;21.04;53.64
61710;BME280;47633;51.494;5.386;2023-09-30T02:34:30;102484.66;;;21.05;53.40
61710;BME280;47633;51.494;5.386;2023-09-30T02:36:55;102482.09;;;21.03;53.72
61710;BME280;47633;51.494;5.386;2023-09-30T02:39:21;102482.94;;;21.04;53.51
61710;BME280;47633;51.494;5.386;2023-09-30T02:41:46;102486.53;;;21.02;53.42
61710;BME280;47633;51.494;5.386;2023-09-30T02:44:12;102490.06;;;21.03;53.25
61710;BME280;47633;51.494;5.386;2023-09-30T02:46:37;102475.94;;;21.02;53.33
61710;BME280;47633;51.494;5.386;2023-09-30T02:49:03;102470.63;;;21.02;53.06
61710;BME280;47633;51.494;5.386;2023-09-30T02:51:28;102476.81;;;21.03;53.10
61710;BME280;47633;51.494;5.386;2023-09-30T02:53:55;102477.75;;;21.02;53.18
61710;BME280;47633;51.494;5.386;2023-09-30T02:56:20;102473.38;;;21.01;53.27
61710;BME280;47633;51.494;5.386;2023-09-30T02:58:46;102472.53;;;21.00;52.98
61710;BME280;47633;51.494;5.386;2023-09-30T03:01:15;102469.91;;;21.00;53.29
61710;BME280;47633;51.494;5.386;2023-09-30T03:03:43;102483.25;;;20.99;53.23
61710;BME280;47633;51.494;5.386;2023-09-30T03:06:10;102484.97;;;21.00;53.19
61710;BME280;47633;51.494;5.386;2023-09-30T03:08:36;102492.03;;;20.99;52.90
61710;BME280;47633;51.494;5.386;2023-09-30T03:11:01;102490.25;;;21.00;52.99
61710;BME280;47633;51.494;5.386;2023-09-30T03:13:27;102491.09;;;21.00;53.25
61710;BME280;47633;51.494;5.386;2023-09-30T03:15:52;102486.75;;;20.99;52.85
61710;BME280;47633;51.494;5.386;2023-09-30T03:18:17;102490.38;;;20.98;53.17
61710;BME280;47633;51.494;5.386;2023-09-30T03:20:47;102492.16;;;20.98;53.04
61710;BME280;47633;51.494;5.386;2023-09-30T03:23:16;102482.41;;;20.98;52.83
61710;BME280;47633;51.494;5.386;2023-09-30T03:25:41;102474.47;;;20.98;53.20
61710;BME280;47633;51.494;5.386;2023-09-30T03:28:08;102467.44;;;20.97;52.91
61710;BME280;47633;51.494;5.386;2023-09-30T03:30:33;102453.34;;;20.97;53.09
61710;BME280;47633;51.494;5.386;2023-09-30T03:32:59;102462.16;;;20.97;53.01
61710;BME280;47633;51.494;5.386;2023-09-30T03:35:24;102459.59;;;20.96;53.36
61710;BME280;47633;51.494;5.386;2023-09-30T03:37:50;102460.44;;;20.96;53.08
61710;BME280;47633;51.494;5.386;2023-09-30T03:40:16;102462.25;;;20.96;53.06
61710;BME280;47633;51.494;5.386;2023-09-30T03:42:45;102453.47;;;20.95;52.78
61710;BME280;47633;51.494;5.386;2023-09-30T03:45:13;102465.84;;;20.95;52.95
61710;BME280;47633;51.494;5.386;2023-09-30T03:47:40;102465.00;;;20.94;53.07
61710;BME280;47633;51.494;5.386;2023-09-30T03:50:06;102479.09;;;20.95;52.78
61710;BME280;47633;51.494;5.386;2023-09-30T03:52:38;102482.72;;;20.94;52.78
61710;BME280;47633;51.494;5.386;2023-09-30T03:55:04;102476.56;;;20.93;52.88
61710;BME280;47633;51.494;5.386;2023-09-30T03:57:33;102465.13;;;20.93;52.94
61710;BME280;47633;51.494;5.386;2023-09-30T04:00:01;102455.34;;;20.93;52.60
61710;BME280;47633;51.494;5.386;2023-09-30T04:02:31;102461.72;;;20.91;52.81
61710;BME280;47633;51.494;5.386;2023-09-30T04:04:57;102463.28;;;20.93;52.84
61710;BME280;47633;51.494;5.386;2023-09-30T04:07:22;102463.41;;;20.92;52.75
61710;BME280;47633;51.494;5.386;2023-09-30T04:09:55;102464.38;;;20.91;53.08
61710;BME280;47633;51.494;5.386;2023-09-30T04:12:21;102463.50;;;20.90;52.93
61710;BME280;47633;51.494;5.386;2023-09-30T04:14:49;102466.16;;;20.90;52.92
61710;BME280;47633;51.494;5.386;2023-09-30T04:17:14;102460.75;;;20.92;52.96
61710;BME280;47633;51.494;5.386;2023-09-30T04:19:40;102467.97;;;20.90;52.41
61710;BME280;47633;51.494;5.386;2023-09-30T04:22:05;102469.69;;;20.91;52.82
61710;BME280;47633;51.494;5.386;2023-09-30T04:24:30;102465.22;;;20.91;52.44
61710;BME280;47633;51.494;5.386;2023-09-30T04:26:55;102459.91;;;20.91;52.67
61710;BME280;47633;51.494;5.386;2023-09-30T04:29:28;102461.72;;;20.91;52.92
61710;BME280;47633;51.494;5.386;2023-09-30T04:31:54;102469.78;;;20.89;52.94
61710;BME280;47633;51.494;5.386;2023-09-30T04:34:20;102463.50;;;20.90;52.73
61710;BME280;47633;51.494;5.386;2023-09-30T04:36:47;102466.28;;;20.89;52.56
61710;BME280;47633;51.494;5.386;2023-09-30T04:39:12;102473.28;;;20.90;52.62
61710;BME280;47633;51.494;5.386;2023-09-30T04:41:38;102477.84;;;20.88;52.49
61710;BME280;47633;51.494;5.386;2023-09-30T04:44:09;102477.84;;;20.88;52.42
61710;BME280;47633;51.494;5.386;2023-09-30T04:46:38;102480.47;;;20.88;52.54
61710;BME280;47633;51.494;5.386;2023-09-30T04:49:14;102481.31;;;20.88;52.46
61710;BME280;47633;51.494;5.386;2023-09-30T04:51:39;102469.88;;;20.88;52.40
61710;BME280;47633;51.494;5.386;2023-09-30T04:54:05;102471.69;;;20.87;52.54
61710;BME280;47633;51.494;5.386;2023-09-30T04:56:32;102483.97;;;20.88;52.39
61710;BME280;47633;51.494;5.386;2023-09-30T04:58:57;102487.69;;;20.86;52.50
61710;BME280;47633;51.494;5.386;2023-09-30T05:01:24;102490.34;;;20.86;52.35
61710;BME280;47633;51.494;5.386;2023-09-30T05:03:50;102497.31;;;20.87;52.21
61710;BME280;47633;51.494;5.386;2023-09-30T05:06:15;102492.13;;;20.85;52.29
61710;BME280;47633;51.494;5.386;2023-09-30T05:08:41;102499.97;;;20.87;52.11
61710;BME280;47633;51.494;5.386;2023-09-30T05:11:06;102498.28;;;20.86;52.37
61710;BME280;47633;51.494;5.386;2023-09-30T05:13:32;102495.66;;;20.86;52.20
61710;BME280;47633;51.494;5.386;2023-09-30T05:16:00;102499.34;;;20.83;52.02
61710;BME280;47633;51.494;5.386;2023-09-30T05:18:25;102497.53;;;20.83;52.22
61710;BME280;47633;51.494;5.386;2023-09-30T05:20:51;102498.41;;;20.84;52.16
61710;BME280;47633;51.494;5.386;2023-09-30T05:23:16;102494.78;;;20.85;52.18
61710;BME280;47633;51.494;5.386;2023-09-30T05:25:42;102493.09;;;20.84;52.09
61710;BME280;47633;51.494;5.386;2023-09-30T05:28:08;102499.34;;;20.83;52.20
61710;BME280;47633;51.494;5.386;2023-09-30T05:30:35;102508.13;;;20.83;52.15
61710;BME280;47633;51.494;5.386;2023-09-30T05:33:00;102501.16;;;20.82;52.13
61710;BME280;47633;51.494;5.386;2023-09-30T05:35:26;102508.22;;;20.82;51.85
61710;BME280;47633;51.494;5.386;2023-09-30T05:37:53;102509.09;;;20.82;51.92
61710;BME280;47633;51.494;5.386;2023-09-30T05:40:20;102509.09;;;20.82;51.83
61710;BME280;47633;51.494;5.386;2023-09-30T05:42:58;102502.19;;;20.80;51.78
61710;BME280;47633;51.494;5.386;2023-09-30T05:45:25;102509.19;;;20.81;52.04
61710;BME280;47633;51.494;5.386;2023-09-30T05:47:52;102519.78;;;20.81;51.73
61710;BME280;47633;51.494;5.386;2023-09-30T05:50:19;102523.38;;;20.80;52.11
61710;BME280;47633;51.494;5.386;2023-09-30T05:52:50;102514.59;;;20.79;51.84
61710;BME280;47633;51.494;5.386;2023-09-30T05:55:17;102521.56;;;20.80;52.03
61710;BME280;47633;51.494;5.386;2023-09-30T05:57:48;102515.44;;;20.80;51.85
61710;BME280;47633;51.494;5.386;2023-09-30T06:00:15;102528.69;;;20.80;51.86
61710;BME280;47633;51.494;5.386;2023-09-30T06:03:00;102526.13;;;20.78;51.94
61710;BME280;47633;51.494;5.386;2023-09-30T06:05:26;102523.38;;;20.80;52.01
61710;BME280;47633;51.494;5.386;2023-09-30T06:07:55;102520.72;;;20.80;51.94
61710;BME280;47633;51.494;5.386;2023-09-30T06:10:20;102520.84;;;20.78;52.30
61710;BME280;47633;51.494;5.386;2023-09-30T06:12:52;102521.88;;;20.76;52.65
61710;BME280;47633;51.494;5.386;2023-09-30T06:15:20;102523.69;;;20.75;52.55
61710;BME280;47633;51.494;5.386;2023-09-30T06:17:51;102523.06;;;20.72;52.35
61710;BME280;47633;51.494;5.386;2023-09-30T06:20:17;102525.78;;;20.70;52.59
61710;BME280;47633;51.494;5.386;2023-09-30T06:22:46;102523.25;;;20.69;52.69
61710;BME280;47633;51.494;5.386;2023-09-30T06:25:13;102518.78;;;20.69;53.05
61710;BME280;47633;51.494;5.386;2023-09-30T06:27:42;102527.59;;;20.70;52.99
61710;BME280;47633;51.494;5.386;2023-09-30T06:30:08;102519.75;;;20.68;53.09
61710;BME280;47633;51.494;5.386;2023-09-30T06:32:34;102516.13;;;20.69;53.27
61710;BME280;47633;51.494;5.386;2023-09-30T06:35:01;102517.94;;;20.69;53.17
61710;BME280;47633;51.494;5.386;2023-09-30T06:37:28;102524.19;;;20.68;53.72
61710;BME280;47633;51.494;5.386;2023-09-30T06:39:55;102529.38;;;20.69;53.77
61710;BME280;47633;51.494;5.386;2023-09-30T06:42:21;102521.44;;;20.69;53.70
61710;BME280;47633;51.494;5.386;2023-09-30T06:44:46;102524.19;;;20.68;53.80
61710;BME280;47633;51.494;5.386;2023-09-30T06:47:12;102526.75;;;20.69;53.75
61710;BME280;47633;51.494;5.386;2023-09-30T06:49:37;102529.38;;;20.69;53.84
61710;BME280;47633;51.494;5.386;2023-09-30T06:52:03;102534.69;;;20.69;53.75
61710;BME280;47633;51.494;5.386;2023-09-30T06:54:28;102533.00;;;20.68;53.90
61710;BME280;47633;51.494;5.386;2023-09-30T06:56:54;102547.00;;;20.70;53.99
61710;BME280;47633;51.494;5.386;2023-09-30T06:59:19;102560.13;;;20.72;53.70
61710;BME280;47633;51.494;5.386;2023-09-30T07:01:44;102566.28;;;20.72;54.08
61710;BME280;47633;51.494;5.386;2023-09-30T07:04:10;102558.22;;;20.74;54.32
61710;BME280;47633;51.494;5.386;2023-09-30T07:06:36;102566.06;;;20.75;54.14
61710;BME280;47633;51.494;5.386;2023-09-30T07:09:02;102574.13;;;20.74;54.05
61710;BME280;47633;51.494;5.386;2023-09-30T07:11:30;102573.19;;;20.75;54.12
61710;BME280;47633;51.494;5.386;2023-09-30T07:13:58;102579.22;;;20.77;54.15
61710;BME280;47633;51.494;5.386;2023-09-30T07:16:23;102573.09;;;20.76;54.28
61710;BME280;47633;51.494;5.386;2023-09-30T07:18:49;102571.19;;;20.78;54.52
61710;BME280;47633;51.494;5.386;2023-09-30T07:21:15;102573.63;;;20.81;54.74
61710;BME280;47633;51.494;5.386;2023-09-30T07:23:41;102578.00;;;20.82;54.47
61710;BME280;47633;51.494;5.386;2023-09-30T07:26:06;102594.72;;;20.83;54.76
61710;BME280;47633;51.494;5.386;2023-09-30T07:28:32;102599.94;;;20.84;54.62
61710;BME280;47633;51.494;5.386;2023-09-30T07:30:58;102613.19;;;20.84;54.52
61710;BME280;47633;51.494;5.386;2023-09-30T07:33:23;102615.81;;;20.84;54.79
61710;BME280;47633;51.494;5.386;2023-09-30T07:35:48;102622.94;;;20.84;54.63
61710;BME280;47633;51.494;5.386;2023-09-30T07:38:14;102627.16;;;20.87;54.87
61710;BME280;47633;51.494;5.386;2023-09-30T07:40:39;102630.69;;;20.87;54.92
61710;BME280;47633;51.494;5.386;2023-09-30T07:43:05;102628.03;;;20.87;54.81
61710;BME280;47633;51.494;5.386;2023-09-30T07:45:30;102627.94;;;20.89;55.07
61710;BME280;47633;51.494;5.386;2023-09-30T07:47:56;102625.50;;;20.86;55.20
61710;BME280;47633;51.494;5.386;2023-09-30T07:50:24;102619.31;;;20.85;55.16
61710;BME280;47633;51.494;5.386;2023-09-30T07:52:49;102617.75;;;20.82;54.99
61710;BME280;47633;51.494;5.386;2023-09-30T07:55:15;102616.56;;;20.87;55.34
61710;BME280;47633;51.494;5.386;2023-09-30T07:57:41;102612.13;;;20.87;55.02
61710;BME280;47633;51.494;5.386;2023-09-30T08:00:08;102614.56;;;20.90;55.34
61710;BME280;47633;51.494;5.386;2023-09-30T08:02:41;102620.63;;;20.92;55.13
61710;BME280;47633;51.494;5.386;2023-09-30T08:05:07;102615.34;;;20.92;55.44
61710;BME280;47633;51.494;5.386;2023-09-30T08:07:33;102613.41;;;20.94;55.68
61710;BME280;47633;51.494;5.386;2023-09-30T08:09:59;102613.97;;;20.99;55.54
61710;BME280;47633;51.494;5.386;2023-09-30T08:12:24;102614.72;;;21.01;55.56
61710;BME280;47633;51.494;5.386;2023-09-30T08:14:49;102605.81;;;21.02;55.64
61710;BME280;47633;51.494;5.386;2023-09-30T08:17:17;102614.53;;;21.05;55.45
61710;BME280;47633;51.494;5.386;2023-09-30T08:19:44;102607.72;;;21.00;55.63
61710;BME280;47633;51.494;5.386;2023-09-30T08:22:09;102601.31;;;20.90;55.68
61710;BME280;47633;51.494;5.386;2023-09-30T08:24:35;102603.50;;;20.83;56.13
61710;BME280;47633;51.494;5.386;2023-09-30T08:27:01;102608.16;;;20.80;56.50
61710;BME280;47633;51.494;5.386;2023-09-30T08:29:26;102600.44;;;20.77;56.58
61710;BME280;47633;51.494;5.386;2023-09-30T08:31:51;102597.97;;;20.74;56.45
61710;BME280;47633;51.494;5.386;2023-09-30T08:34:17;102597.13;;;20.73;56.84
61710;BME280;47633;51.494;5.386;2023-09-30T08:36:45;102601.56;;;20.73;56.83
61710;BME280;47633;51.494;5.386;2023-09-30T08:39:10;102600.72;;;20.72;56.94
61710;BME280;47633;51.494;5.386;2023-09-30T08:41:35;102600.63;;;20.74;57.04
61710;BME280;47633;51.494;5.386;2023-09-30T08:44:02;102583.88;;;20.73;57.11
61710;BME280;47633;51.494;5.386;2023-09-30T08:46:33;102588.31;;;20.73;57.30
61710;BME280;47633;51.494;5.386;2023-09-30T08:49:01;102584.72;;;20.74;57.00
61710;BME280;47633;51.494;5.386;2023-09-30T08:51:29;102582.28;;;20.71;57.34
61710;BME280;47633;51.494;5.386;2023-09-30T08:53:54;102582.28;;;20.71;57.10
61710;BME280;47633;51.494;5.386;2023-09-30T08:56:27;102587.56;;;20.71;57.16
61710;BME280;47633;51.494;5.386;2023-09-30T08:58:57;102583.16;;;20.71;57.49
61710;BME280;47633;51.494;5.386;2023-09-30T09:01:26;102582.28;;;20.71;56.97
61710;BME280;47633;51.494;5.386;2023-09-30T09:03:52;102582.19;;;20.72;57.31
61710;BME280;47633;51.494;5.386;2023-09-30T09:06:22;102585.66;;;20.73;56.97
61710;BME280;47633;51.494;5.386;2023-09-30T09:08:48;102596.94;;;20.76;57.33
61710;BME280;47633;51.494;5.386;2023-09-30T09:11:13;102604.78;;;20.78;57.08
61710;BME280;47633;51.494;5.386;2023-09-30T09:13:53;102611.88;;;20.77;57.53
61710;BME280;47633;51.494;5.386;2023-09-30T09:16:22;102613.66;;;20.77;57.43
61710;BME280;47633;51.494;5.386;2023-09-30T09:18:48;102610.19;;;20.76;57.50
61710;BME280;47633;51.494;5.386;2023-09-30T09:21:16;102615.38;;;20.78;57.43
61710;BME280;47633;51.494;5.386;2023-09-30T09:23:47;102619.91;;;20.76;57.56
61710;BME280;47633;51.494;5.386;2023-09-30T09:26:48;102635.72;;;20.77;57.14
61710;BME280;47633;51.494;5.386;2023-09-30T09:29:15;102631.28;;;20.78;57.45
61710;BME280;47633;51.494;5.386;2023-09-30T09:31:40;102647.72;;;20.83;57.42
61710;BME280;47633;51.494;5.386;2023-09-30T09:34:13;102643.47;;;20.80;57.11
61710;BME280;47633;51.494;5.386;2023-09-30T09:36:41;102653.13;;;20.81;57.46
61710;BME280;47633;51.494;5.386;2023-09-30T09:39:07;102658.53;;;20.80;57.19
61710;BME280;47633;51.494;5.386;2023-09-30T09:41:33;102647.91;;;20.80;57.20
61710;BME280;47633;51.494;5.386;2023-09-30T09:44:14;102654.06;;;20.80;57.33
61710;BME280;47633;51.494;5.386;2023-09-30T09:46:39;102650.56;;;20.80;57.55
61710;BME280;47633;51.494;5.386;2023-09-30T09:49:05;102652.28;;;20.81;57.36
61710;BME280;47633;51.494;5.386;2023-09-30T09:51:30;102648.84;;;20.79;57.30
61710;BME280;47633;51.494;5.386;2023-09-30T09:53:55;102653.22;;;20.80;57.19
61710;BME280;47633;51.494;5.386;2023-09-30T09:56:21;102653.03;;;20.83;57.40
61710;BME280;47633;51.494;5.386;2023-09-30T09:58:47;102653.03;;;20.83;57.33
61710;BME280;47633;51.494;5.386;2023-09-30T10:01:13;102647.72;;;20.83;56.86
61710;BME280;47633;51.494;5.386;2023-09-30T10:03:38;102647.72;;;20.83;57.30
61710;BME280;47633;51.494;5.386;2023-09-30T10:06:05;102650.38;;;20.83;57.11
61710;BME280;47633;51.494;5.386;2023-09-30T10:08:42;102658.31;;;20.83;57.13
61710;BME280;47633;51.494;5.386;2023-09-30T10:11:16;102662.69;;;20.84;57.19
61710;BME280;47633;51.494;5.386;2023-09-30T10:13:57;102660.59;;;20.89;57.09
61710;BME280;47633;51.494;5.386;2023-09-30T10:19:11;102673.00;;;20.89;57.00
61710;BME280;47633;51.494;5.386;2023-09-30T10:21:37;102674.78;;;20.88;56.90
61710;BME280;47633;51.494;5.386;2023-09-30T10:40:48;102632.16;;;21.18;56.16
61710;BME280;47633;51.494;5.386;2023-09-30T10:43:43;102629.84;;;21.27;55.66
61710;BME280;47633;51.494;5.386;2023-09-30T10:48:52;102625.44;;;21.40;55.41
61710;BME280;47633;51.494;5.386;2023-09-30T10:51:18;102621.16;;;21.37;55.55
61710;BME280;47633;51.494;5.386;2023-09-30T10:53:53;102605.16;;;21.39;55.64
61710;BME280;47633;51.494;5.386;2023-09-30T10:56:22;102609.63;;;21.38;55.74
61710;BME280;47633;51.494;5.386;2023-09-30T10:58:50;102606.03;;;21.40;55.42
61710;BME280;47633;51.494;5.386;2023-09-30T11:01:19;102599.75;;;21.41;55.58
61710;BME280;47633;51.494;5.386;2023-09-30T11:03:46;102593.50;;;21.42;55.45
61710;BME280;47633;51.494;5.386;2023-09-30T11:06:15;102583.72;;;21.42;55.43
61710;BME280;47633;51.494;5.386;2023-09-30T11:08:51;102591.59;;;21.44;55.37
61710;BME280;47633;51.494;5.386;2023-09-30T11:11:16;102588.81;;;21.45;55.45
61710;BME280;47633;51.494;5.386;2023-09-30T11:13:42;102593.19;;;21.46;55.37
61710;BME280;47633;51.494;5.386;2023-09-30T11:16:07;102595.94;;;21.45;55.66
61710;BME280;47633;51.494;5.386;2023-09-30T11:18:34;102594.03;;;21.47;55.42
61710;BME280;47633;51.494;5.386;2023-09-30T11:21:09;102598.69;;;21.43;55.31
61710;BME280;47633;51.494;5.386;2023-09-30T11:23:36;102596.78;;;21.45;55.72
61710;BME280;47633;51.494;5.386;2023-09-30T11:26:02;102588.72;;;21.47;55.34
61710;BME280;47633;51.494;5.386;2023-09-30T11:28:39;102591.47;;;21.45;55.08
61710;BME280;47633;51.494;5.386;2023-09-30T11:31:11;102592.31;;;21.46;55.44
61710;BME280;47633;51.494;5.386;2023-09-30T11:33:53;102601.25;;;21.45;55.39
61710;BME280;47633;51.494;5.386;2023-09-30T11:36:21;102590.75;;;21.43;55.91
61710;BME280;47633;51.494;5.386;2023-09-30T11:38:50;102582.56;;;21.33;55.88
61710;BME280;47633;51.494;5.386;2023-09-30T11:41:16;102573.63;;;21.22;56.26
61710;BME280;47633;51.494;5.386;2023-09-30T11:44:19;102579.75;;;21.09;56.18
61710;BME280;47633;51.494;5.386;2023-09-30T11:49:27;102578.56;;;21.00;56.57
61710;BME280;47633;51.494;5.386;2023-09-30T11:51:53;102576.31;;;20.94;57.08
61710;BME280;47633;51.494;5.386;2023-09-30T11:54:18;102578.88;;;20.96;56.78
61710;BME280;47633;51.494;5.386;2023-09-30T11:56:44;102587.66;;;20.96;56.63
61710;BME280;47633;51.494;5.386;2023-09-30T11:59:10;102583.03;;;21.00;56.70
61710;BME280;47633;51.494;5.386;2023-09-30T12:01:39;102580.19;;;21.03;57.29
61710;BME280;47633;51.494;5.386;2023-09-30T12:04:04;102590.34;;;21.09;57.00
61710;BME280;47633;51.494;5.386;2023-09-30T12:06:30;102566.28;;;21.12;56.98
61710;BME280;47633;51.494;5.386;2023-09-30T12:08:55;102574.69;;;21.19;56.66
61710;BME280;47633;51.494;5.386;2023-09-30T12:11:20;102571.06;;;21.20;57.16
61710;BME280;47633;51.494;5.386;2023-09-30T12:13:47;102572.88;;;21.19;57.04
61710;BME280;47633;51.494;5.386;2023-09-30T12:16:15;102573.41;;;21.25;57.01
61710;BME280;47633;51.494;5.386;2023-09-30T12:18:41;102570.75;;;21.25;57.28
61710;BME280;47633;51.494;5.386;2023-09-30T12:21:26;102569.94;;;21.24;57.53
61710;BME280;47633;51.494;5.386;2023-09-30T12:23:51;102564.41;;;21.27;57.44
61710;BME280;47633;51.494;5.386;2023-09-30T12:26:17;102560.78;;;21.28;57.18
61710;BME280;47633;51.494;5.386;2023-09-30T12:28:42;102552.00;;;21.28;57.28
61710;BME280;47633;51.494;5.386;2023-09-30T12:31:09;102546.59;;;21.29;57.21
61710;BME280;47633;51.494;5.386;2023-09-30T12:33:36;102543.00;;;21.30;57.27
61710;BME280;47633;51.494;5.386;2023-09-30T12:36:01;102543.94;;;21.29;57.63
61710;BME280;47633;51.494;5.386;2023-09-30T12:38:27;102545.66;;;21.30;57.47
61710;BME280;47633;51.494;5.386;2023-09-30T12:40:54;102533.97;;;21.33;57.69
61710;BME280;47633;51.494;5.386;2023-09-30T12:43:21;102533.13;;;21.32;57.45
61710;BME280;47633;51.494;5.386;2023-09-30T12:45:46;102534.94;;;21.32;57.70
61710;BME280;47633;51.494;5.386;2023-09-30T12:48:13;102526.78;;;21.35;57.71
61710;BME280;47633;51.494;5.386;2023-09-30T12:50:40;102531.97;;;21.36;57.62
61710;BME280;47633;51.494;5.386;2023-09-30T12:53:05;102530.38;;;21.34;57.55
61710;BME280;47633;51.494;5.386;2023-09-30T12:55:30;102532.28;;;21.32;57.19
61710;BME280;47633;51.494;5.386;2023-09-30T12:57:56;102537.59;;;21.32;57.94
61710;BME280;47633;51.494;5.386;2023-09-30T13:00:21;102528.88;;;21.30;57.54
61710;BME280;47633;51.494;5.386;2023-09-30T13:02:50;102534.16;;;21.30;56.69
61710;BME280;47633;51.494;5.386;2023-09-30T13:05:15;102538.44;;;21.32;57.21
61710;BME280;47633;51.494;5.386;2023-09-30T13:07:42;102539.47;;;21.30;57.43
61710;BME280;47633;51.494;5.386;2023-09-30T13:10:08;102525.38;;;21.29;57.41
61710;BME280;47633;51.494;5.386;2023-09-30T13:12:34;102520.19;;;21.28;57.55
61710;BME280;47633;51.494;5.386;2023-09-30T13:15:00;102517.53;;;21.28;56.77